sensor_id;sensor_type;location;lat;lon;timestamp;temperature;humidity
29321;DHT22;16323;51.130;6.612;2023-03-01T09:36:36;15.70;34.80
29321;DHT22;16323;51.130;6.612;2023-03-01T09:39:03;15.00;37.00
29321;DHT22;16323;51.130;6.612;2023-03-01T09:41:43;15.00;35.40
29321;DHT22;16323;51.130;6.612;2023-03-01T09:44:18;15.00;34.30
29321;DHT22;16323;51.130;6.612;2023-03-01T09:46:47;15.00;34.20
29321;DHT22;16323;51.130;6.612;2023-03-01T09:49:16;14.90;34.10
29321;DHT22;16323;51.130;6.612;2023-03-01T09:51:55;14.90;38.40
29321;DHT22;16323;51.130;6.612;2023-03-01T09:54:22;14.90;36.80
29321;DHT22;16323;51.130;6.612;2023-03-01T09:57:00;14.90;35.80
29321;DHT22;16323;51.130;6.612;2023-03-01T09:59:36;14.90;35.10
29321;DHT22;16323;51.130;6.612;2023-03-01T10:02:21;14.90;34.70
29321;DHT22;16323;51.130;6.612;2023-03-01T10:04:51;14.90;34.40
29321;DHT22;16323;51.130;6.612;2023-03-01T10:07:29;14.90;34.50
29321;DHT22;16323;51.130;6.612;2023-03-01T10:09:58;14.90;34.20
29321;DHT22;16323;51.130;6.612;2023-03-01T10:12:30;14.90;34.10
29321;DHT22;16323;51.130;6.612;2023-03-01T10:15:04;14.90;34.10
29321;DHT22;16323;51.130;6.612;2023-03-01T10:17:35;14.90;34.00
29321;DHT22;16323;51.130;6.612;2023-03-01T10:20:19;14.90;33.80
29321;DHT22;16323;51.130;6.612;2023-03-01T10:22:49;14.90;33.70
29321;DHT22;16323;51.130;6.612;2023-03-01T10:25:32;14.90;33.60
29321;DHT22;16323;51.130;6.612;2023-03-01T10:28:07;15.00;33.70
29321;DHT22;16323;51.130;6.612;2023-03-01T10:30:39;15.00;33.60
29321;DHT22;16323;51.130;6.612;2023-03-01T10:33:14;15.00;33.40
29321;DHT22;16323;51.130;6.612;2023-03-01T10:35:43;15.00;33.40
29321;DHT22;16323;51.130;6.612;2023-03-01T10:38:13;15.00;33.60
29321;DHT22;16323;51.130;6.612;2023-03-01T10:40:51;15.00;33.70
29321;DHT22;16323;51.130;6.612;2023-03-01T10:43:18;14.90;33.40
29321;DHT22;16323;51.130;6.612;2023-03-01T10:45:45;14.90;33.50
29321;DHT22;16323;51.130;6.612;2023-03-01T10:48:14;14.90;33.50
29321;DHT22;16323;51.130;6.612;2023-03-01T10:50:42;14.90;33.60
29321;DHT22;16323;51.130;6.612;2023-03-01T10:53:26;14.90;33.70
29321;DHT22;16323;51.130;6.612;2023-03-01T10:56:03;14.90;33.40
29321;DHT22;16323;51.130;6.612;2023-03-01T10:58:31;14.90;33.30
29321;DHT22;16323;51.130;6.612;2023-03-01T11:01:00;14.90;33.20
29321;DHT22;16323;51.130;6.612;2023-03-01T11:03:29;14.90;33.10
29321;DHT22;16323;51.130;6.612;2023-03-01T11:06:03;14.90;32.90
29321;DHT22;16323;51.130;6.612;2023-03-01T11:08:40;14.90;32.70
29321;DHT22;16323;51.130;6.612;2023-03-01T11:11:21;14.90;32.80
29321;DHT22;16323;51.130;6.612;2023-03-01T11:13:54;14.90;33.00
29321;DHT22;16323;51.130;6.612;2023-03-01T11:16:26;15.00;33.00
29321;DHT22;16323;51.130;6.612;2023-03-01T11:18:59;14.90;33.20
29321;DHT22;16323;51.130;6.612;2023-03-01T11:21:28;14.90;33.30
29321;DHT22;16323;51.130;6.612;2023-03-01T11:24:00;15.00;33.50
29321;DHT22;16323;51.130;6.612;2023-03-01T11:26:28;14.90;33.10
29321;DHT22;16323;51.130;6.612;2023-03-01T11:29:02;14.90;33.00
29321;DHT22;16323;51.130;6.612;2023-03-01T11:31:31;14.90;33.00
29321;DHT22;16323;51.130;6.612;2023-03-01T11:34:03;14.90;32.70
29321;DHT22;16323;51.130;6.612;2023-03-01T11:36:34;14.90;32.90
29321;DHT22;16323;51.130;6.612;2023-03-01T11:39:10;14.90;33.10
29321;DHT22;16323;51.130;6.612;2023-03-01T11:41:40;14.90;33.10
29321;DHT22;16323;51.130;6.612;2023-03-01T11:44:14;14.90;32.90
29321;DHT22;16323;51.130;6.612;2023-03-01T11:47:16;14.90;32.90
29321;DHT22;16323;51.130;6.612;2023-03-01T11:52:46;14.90;32.70
29321;DHT22;16323;51.130;6.612;2023-03-01T11:55:41;14.90;33.70
29321;DHT22;16323;51.130;6.612;2023-03-01T11:58:26;15.00;33.10
29321;DHT22;16323;51.130;6.612;2023-03-01T12:01:07;15.00;32.90
29321;DHT22;16323;51.130;6.612;2023-03-01T12:04:01;15.00;33.10
29321;DHT22;16323;51.130;6.612;2023-03-01T12:06:42;15.00;32.90
29321;DHT22;16323;51.130;6.612;2023-03-01T12:09:23;15.00;32.80
29321;DHT22;16323;51.130;6.612;2023-03-01T12:12:07;15.10;32.90
29321;DHT22;16323;51.130;6.612;2023-03-01T12:14:50;15.00;32.60
29321;DHT22;16323;51.130;6.612;2023-03-01T12:17:40;15.00;32.70
29321;DHT22;16323;51.130;6.612;2023-03-01T12:20:28;15.00;32.70
29321;DHT22;16323;51.130;6.612;2023-03-01T12:23:27;15.00;32.60
29321;DHT22;16323;51.130;6.612;2023-03-01T12:26:00;15.00;32.60
29321;DHT22;16323;51.130;6.612;2023-03-01T12:28:51;15.00;32.70
29321;DHT22;16323;51.130;6.612;2023-03-01T12:31:37;15.00;32.60
29321;DHT22;16323;51.130;6.612;2023-03-01T12:34:26;15.00;32.70
29321;DHT22;16323;51.130;6.612;2023-03-01T12:37:05;15.00;33.00
29321;DHT22;16323;51.130;6.612;2023-03-01T12:39:44;15.00;33.10
29321;DHT22;16323;51.130;6.612;2023-03-01T12:42:21;15.00;32.90
29321;DHT22;16323;51.130;6.612;2023-03-01T12:47:56;15.00;32.80
29321;DHT22;16323;51.130;6.612;2023-03-01T12:50:32;15.00;32.60
29321;DHT22;16323;51.130;6.612;2023-03-01T12:53:02;15.00;32.60
29321;DHT22;16323;51.130;6.612;2023-03-01T12:55:32;15.10;32.50
29321;DHT22;16323;51.130;6.612;2023-03-01T12:58:06;15.10;32.40
29321;DHT22;16323;51.130;6.612;2023-03-01T13:00:40;15.20;33.60
29321;DHT22;16323;51.130;6.612;2023-03-01T13:03:19;15.20;33.00
29321;DHT22;16323;51.130;6.612;2023-03-01T13:06:02;15.20;32.70
29321;DHT22;16323;51.130;6.612;2023-03-01T13:08:37;15.10;32.80
29321;DHT22;16323;51.130;6.612;2023-03-01T13:11:11;15.10;32.90
29321;DHT22;16323;51.130;6.612;2023-03-01T13:13:41;15.10;32.90
29321;DHT22;16323;51.130;6.612;2023-03-01T13:16:39;15.10;33.00
29321;DHT22;16323;51.130;6.612;2023-03-01T13:19:12;15.10;33.00
29321;DHT22;16323;51.130;6.612;2023-03-01T13:21:40;15.10;33.10
29321;DHT22;16323;51.130;6.612;2023-03-01T13:24:24;15.10;33.10
29321;DHT22;16323;51.130;6.612;2023-03-01T13:27:22;15.10;33.20
29321;DHT22;16323;51.130;6.612;2023-03-01T13:29:51;15.00;33.20
29321;DHT22;16323;51.130;6.612;2023-03-01T13:32:22;15.00;33.20
29321;DHT22;16323;51.130;6.612;2023-03-01T13:34:54;15.10;33.20
29321;DHT22;16323;51.130;6.612;2023-03-01T13:37:30;15.10;33.20
29321;DHT22;16323;51.130;6.612;2023-03-01T13:39:58;15.10;33.30
29321;DHT22;16323;51.130;6.612;2023-03-01T13:42:39;15.10;33.20
29321;DHT22;16323;51.130;6.612;2023-03-01T13:45:17;15.20;33.20
29321;DHT22;16323;51.130;6.612;2023-03-01T13:47:47;15.20;33.30
29321;DHT22;16323;51.130;6.612;2023-03-01T13:50:19;15.20;33.10
29321;DHT22;16323;51.130;6.612;2023-03-01T13:52:50;15.20;33.10
29321;DHT22;16323;51.130;6.612;2023-03-01T13:55:22;15.20;33.10
29321;DHT22;16323;51.130;6.612;2023-03-01T13:57:54;15.10;32.90
29321;DHT22;16323;51.130;6.612;2023-03-01T14:00:34;15.10;32.90
29321;DHT22;16323;51.130;6.612;2023-03-01T14:03:20;15.10;32.90
29321;DHT22;16323;51.130;6.612;2023-03-01T14:06:03;15.10;34.00
29321;DHT22;16323;51.130;6.612;2023-03-01T14:08:33;15.10;33.90
29321;DHT22;16323;51.130;6.612;2023-03-01T14:11:35;15.20;33.90
29321;DHT22;16323;51.130;6.612;2023-03-01T14:17:04;15.20;34.80
29321;DHT22;16323;51.130;6.612;2023-03-01T14:19:35;15.20;34.30
29321;DHT22;16323;51.130;6.612;2023-03-01T14:22:21;15.20;34.50
29321;DHT22;16323;51.130;6.612;2023-03-01T14:24:54;15.20;35.00
29321;DHT22;16323;51.130;6.612;2023-03-01T14:27:21;15.20;34.80
29321;DHT22;16323;51.130;6.612;2023-03-01T14:29:57;15.30;34.30
29321;DHT22;16323;51.130;6.612;2023-03-01T14:32:26;15.30;34.70
29321;DHT22;16323;51.130;6.612;2023-03-01T14:34:55;15.30;34.80
29321;DHT22;16323;51.130;6.612;2023-03-01T14:37:25;15.30;34.50
29321;DHT22;16323;51.130;6.612;2023-03-01T14:39:53;15.30;34.10
29321;DHT22;16323;51.130;6.612;2023-03-01T14:42:22;15.30;34.00
29321;DHT22;16323;51.130;6.612;2023-03-01T14:44:52;15.30;34.80
29321;DHT22;16323;51.130;6.612;2023-03-01T14:47:26;15.30;35.30
29321;DHT22;16323;51.130;6.612;2023-03-01T14:49:58;15.30;34.80
29321;DHT22;16323;51.130;6.612;2023-03-01T14:52:32;15.30;34.80
29321;DHT22;16323;51.130;6.612;2023-03-01T14:55:03;15.30;34.40
29321;DHT22;16323;51.130;6.612;2023-03-01T14:57:30;15.30;34.80
29321;DHT22;16323;51.130;6.612;2023-03-01T14:59:58;15.30;34.70
29321;DHT22;16323;51.130;6.612;2023-03-01T15:02:30;15.30;34.70
29321;DHT22;16323;51.130;6.612;2023-03-01T15:05:02;15.20;34.50
29321;DHT22;16323;51.130;6.612;2023-03-01T15:07:32;15.30;34.90
29321;DHT22;16323;51.130;6.612;2023-03-01T15:10:01;15.30;35.00
29321;DHT22;16323;51.130;6.612;2023-03-01T15:12:39;15.30;35.10
29321;DHT22;16323;51.130;6.612;2023-03-01T15:15:34;15.30;34.90
29321;DHT22;16323;51.130;6.612;2023-03-01T15:18:04;15.40;35.10
29321;DHT22;16323;51.130;6.612;2023-03-01T15:20:34;15.40;34.80
29321;DHT22;16323;51.130;6.612;2023-03-01T15:23:03;15.40;34.80
29321;DHT22;16323;51.130;6.612;2023-03-01T15:25:32;15.40;34.80
29321;DHT22;16323;51.130;6.612;2023-03-01T15:28:01;15.40;34.70
29321;DHT22;16323;51.130;6.612;2023-03-01T15:30:31;15.40;35.10
29321;DHT22;16323;51.130;6.612;2023-03-01T15:33:29;15.40;35.10
29321;DHT22;16323;51.130;6.612;2023-03-01T15:35:59;15.40;34.80
29321;DHT22;16323;51.130;6.612;2023-03-01T15:38:29;15.30;34.70
29321;DHT22;16323;51.130;6.612;2023-03-01T15:40:58;15.40;35.00
29321;DHT22;16323;51.130;6.612;2023-03-01T15:43:43;15.30;35.00
29321;DHT22;16323;51.130;6.612;2023-03-01T15:46:22;15.30;35.30
29321;DHT22;16323;51.130;6.612;2023-03-01T15:48:52;15.40;35.40
29321;DHT22;16323;51.130;6.612;2023-03-01T15:51:28;15.30;35.00
29321;DHT22;16323;51.130;6.612;2023-03-01T15:53:59;15.30;35.10
29321;DHT22;16323;51.130;6.612;2023-03-01T15:56:26;15.30;35.00
29321;DHT22;16323;51.130;6.612;2023-03-01T15:58:52;15.40;35.30
29321;DHT22;16323;51.130;6.612;2023-03-01T16:01:19;15.40;35.10
29321;DHT22;16323;51.130;6.612;2023-03-01T16:03:46;15.40;35.40
29321;DHT22;16323;51.130;6.612;2023-03-01T16:06:13;15.40;35.30
29321;DHT22;16323;51.130;6.612;2023-03-01T16:08:41;15.40;35.10
29321;DHT22;16323;51.130;6.612;2023-03-01T16:11:14;15.40;34.90
29321;DHT22;16323;51.130;6.612;2023-03-01T16:13:42;15.40;35.00
29321;DHT22;16323;51.130;6.612;2023-03-01T16:16:10;15.40;35.20
29321;DHT22;16323;51.130;6.612;2023-03-01T16:18:40;15.50;35.50
29321;DHT22;16323;51.130;6.612;2023-03-01T16:21:12;15.50;35.80
29321;DHT22;16323;51.130;6.612;2023-03-01T16:23:40;15.40;35.70
29321;DHT22;16323;51.130;6.612;2023-03-01T16:26:07;15.40;35.70
29321;DHT22;16323;51.130;6.612;2023-03-01T16:28:34;15.30;35.70
29321;DHT22;16323;51.130;6.612;2023-03-01T16:31:01;15.30;36.10
29321;DHT22;16323;51.130;6.612;2023-03-01T16:33:28;15.30;35.50
29321;DHT22;16323;51.130;6.612;2023-03-01T16:35:55;15.30;35.70
29321;DHT22;16323;51.130;6.612;2023-03-01T16:38:21;15.30;35.80
29321;DHT22;16323;51.130;6.612;2023-03-01T16:40:51;15.30;35.80
29321;DHT22;16323;51.130;6.612;2023-03-01T16:43:18;15.30;35.70
29321;DHT22;16323;51.130;6.612;2023-03-01T16:45:44;15.30;35.50
29321;DHT22;16323;51.130;6.612;2023-03-01T16:48:12;15.30;35.50
29321;DHT22;16323;51.130;6.612;2023-03-01T16:50:40;15.30;35.70
29321;DHT22;16323;51.130;6.612;2023-03-01T16:53:07;15.40;35.80
29321;DHT22;16323;51.130;6.612;2023-03-01T16:55:33;15.40;35.80
29321;DHT22;16323;51.130;6.612;2023-03-01T16:58:02;15.40;35.70
29321;DHT22;16323;51.130;6.612;2023-03-01T17:00:29;15.40;35.70
29321;DHT22;16323;51.130;6.612;2023-03-01T17:02:56;15.40;35.90
29321;DHT22;16323;51.130;6.612;2023-03-01T17:05:23;15.50;36.30
29321;DHT22;16323;51.130;6.612;2023-03-01T17:07:51;15.50;37.50
29321;DHT22;16323;51.130;6.612;2023-03-01T17:10:21;15.40;36.40
29321;DHT22;16323;51.130;6.612;2023-03-01T17:12:48;15.40;36.40
29321;DHT22;16323;51.130;6.612;2023-03-01T17:15:17;15.40;36.40
29321;DHT22;16323;51.130;6.612;2023-03-01T17:17:44;15.40;36.40
29321;DHT22;16323;51.130;6.612;2023-03-01T17:20:12;15.40;36.40
29321;DHT22;16323;51.130;6.612;2023-03-01T17:22:39;15.40;36.50
29321;DHT22;16323;51.130;6.612;2023-03-01T17:25:08;15.40;36.40
29321;DHT22;16323;51.130;6.612;2023-03-01T17:27:36;15.40;36.50
29321;DHT22;16323;51.130;6.612;2023-03-01T17:30:04;15.40;36.40
29321;DHT22;16323;51.130;6.612;2023-03-01T17:32:32;15.40;37.40
29321;DHT22;16323;51.130;6.612;2023-03-01T17:34:59;15.40;36.20
29321;DHT22;16323;51.130;6.612;2023-03-01T17:37:26;15.40;36.20
29321;DHT22;16323;51.130;6.612;2023-03-01T17:39:52;15.40;36.40
29321;DHT22;16323;51.130;6.612;2023-03-01T17:42:19;15.40;36.10
29321;DHT22;16323;51.130;6.612;2023-03-01T17:44:46;15.50;36.20
29321;DHT22;16323;51.130;6.612;2023-03-01T17:47:13;15.50;36.20
29321;DHT22;16323;51.130;6.612;2023-03-01T17:49:41;15.40;36.20
29321;DHT22;16323;51.130;6.612;2023-03-01T17:52:08;15.50;36.40
29321;DHT22;16323;51.130;6.612;2023-03-01T17:54:34;15.40;36.40
29321;DHT22;16323;51.130;6.612;2023-03-01T17:57:01;15.40;36.30
29321;DHT22;16323;51.130;6.612;2023-03-01T17:59:28;15.40;36.50
29321;DHT22;16323;51.130;6.612;2023-03-01T18:01:58;15.40;36.60
29321;DHT22;16323;51.130;6.612;2023-03-01T18:04:26;15.30;36.40
29321;DHT22;16323;51.130;6.612;2023-03-01T18:06:54;15.30;36.20
29321;DHT22;16323;51.130;6.612;2023-03-01T18:09:21;15.30;36.20
29321;DHT22;16323;51.130;6.612;2023-03-01T18:11:48;15.30;36.10
29321;DHT22;16323;51.130;6.612;2023-03-01T18:14:15;15.30;36.20
29321;DHT22;16323;51.130;6.612;2023-03-01T18:16:41;15.30;36.30
29321;DHT22;16323;51.130;6.612;2023-03-01T18:19:10;15.30;36.40
29321;DHT22;16323;51.130;6.612;2023-03-01T18:21:37;15.30;36.30
29321;DHT22;16323;51.130;6.612;2023-03-01T18:24:05;15.30;36.30
29321;DHT22;16323;51.130;6.612;2023-03-01T18:26:32;15.30;36.40
29321;DHT22;16323;51.130;6.612;2023-03-01T18:28:59;15.40;36.50
29321;DHT22;16323;51.130;6.612;2023-03-01T18:31:29;15.40;36.70
29321;DHT22;16323;51.130;6.612;2023-03-01T18:33:58;15.40;36.60
29321;DHT22;16323;51.130;6.612;2023-03-01T18:36:27;15.40;36.60
29321;DHT22;16323;51.130;6.612;2023-03-01T18:38:55;15.40;36.40
29321;DHT22;16323;51.130;6.612;2023-03-01T18:41:25;15.40;36.40
29321;DHT22;16323;51.130;6.612;2023-03-01T18:43:53;15.30;36.40
29321;DHT22;16323;51.130;6.612;2023-03-01T18:46:20;15.30;36.20
29321;DHT22;16323;51.130;6.612;2023-03-01T18:48:47;15.30;36.40
29321;DHT22;16323;51.130;6.612;2023-03-01T18:51:16;15.30;36.30
29321;DHT22;16323;51.130;6.612;2023-03-01T18:53:44;15.30;36.30
29321;DHT22;16323;51.130;6.612;2023-03-01T18:56:11;15.30;36.30
29321;DHT22;16323;51.130;6.612;2023-03-01T18:58:40;15.30;36.30
29321;DHT22;16323;51.130;6.612;2023-03-01T19:01:12;15.30;36.30
29321;DHT22;16323;51.130;6.612;2023-03-01T19:03:39;15.30;36.40
29321;DHT22;16323;51.130;6.612;2023-03-01T19:06:06;15.30;36.40
29321;DHT22;16323;51.130;6.612;2023-03-01T19:08:33;15.30;36.40
29321;DHT22;16323;51.130;6.612;2023-03-01T19:11:02;15.30;36.50
29321;DHT22;16323;51.130;6.612;2023-03-01T19:13:29;15.30;36.50
29321;DHT22;16323;51.130;6.612;2023-03-01T19:16:03;15.40;36.50
29321;DHT22;16323;51.130;6.612;2023-03-01T19:18:30;15.40;36.50
29321;DHT22;16323;51.130;6.612;2023-03-01T19:20:58;15.40;36.20
29321;DHT22;16323;51.130;6.612;2023-03-01T19:23:25;15.40;36.20
29321;DHT22;16323;51.130;6.612;2023-03-01T19:25:57;15.40;36.30
29321;DHT22;16323;51.130;6.612;2023-03-01T19:28:24;15.40;36.30
29321;DHT22;16323;51.130;6.612;2023-03-01T19:30:51;15.40;36.20
29321;DHT22;16323;51.130;6.612;2023-03-01T19:33:19;15.40;36.20
29321;DHT22;16323;51.130;6.612;2023-03-01T19:35:46;15.40;36.20
29321;DHT22;16323;51.130;6.612;2023-03-01T19:38:13;15.40;36.10
29321;DHT22;16323;51.130;6.612;2023-03-01T19:40:40;15.40;36.00
29321;DHT22;16323;51.130;6.612;2023-03-01T19:43:06;15.30;36.10
29321;DHT22;16323;51.130;6.612;2023-03-01T19:45:33;15.30;36.10
29321;DHT22;16323;51.130;6.612;2023-03-01T19:48:00;15.30;36.00
29321;DHT22;16323;51.130;6.612;2023-03-01T19:50:28;15.30;36.00
29321;DHT22;16323;51.130;6.612;2023-03-01T19:52:55;15.30;36.10
29321;DHT22;16323;51.130;6.612;2023-03-01T19:55:22;15.30;36.20
29321;DHT22;16323;51.130;6.612;2023-03-01T19:57:49;15.30;36.00
29321;DHT22;16323;51.130;6.612;2023-03-01T20:00:16;15.30;36.20
29321;DHT22;16323;51.130;6.612;2023-03-01T20:02:43;15.30;36.10
29321;DHT22;16323;51.130;6.612;2023-03-01T20:05:10;15.30;36.00
29321;DHT22;16323;51.130;6.612;2023-03-01T20:07:38;15.40;36.20
29321;DHT22;16323;51.130;6.612;2023-03-01T20:10:05;15.40;36.20
29321;DHT22;16323;51.130;6.612;2023-03-01T20:12:34;15.40;36.20
29321;DHT22;16323;51.130;6.612;2023-03-01T20:15:01;15.40;36.00
29321;DHT22;16323;51.130;6.612;2023-03-01T20:17:28;15.40;36.10
29321;DHT22;16323;51.130;6.612;2023-03-01T20:19:55;15.40;36.10
29321;DHT22;16323;51.130;6.612;2023-03-01T20:22:22;15.40;35.90
29321;DHT22;16323;51.130;6.612;2023-03-01T20:24:50;15.40;36.10
29321;DHT22;16323;51.130;6.612;2023-03-01T20:27:17;15.30;35.90
29321;DHT22;16323;51.130;6.612;2023-03-01T20:29:44;15.30;36.00
29321;DHT22;16323;51.130;6.612;2023-03-01T20:32:11;15.30;35.80
29321;DHT22;16323;51.130;6.612;2023-03-01T20:34:38;15.30;35.90
29321;DHT22;16323;51.130;6.612;2023-03-01T20:37:05;15.30;36.00
29321;DHT22;16323;51.130;6.612;2023-03-01T20:39:33;15.30;35.90
29321;DHT22;16323;51.130;6.612;2023-03-01T20:42:01;15.30;35.70
29321;DHT22;16323;51.130;6.612;2023-03-01T20:44:28;15.30;35.70
29321;DHT22;16323;51.130;6.612;2023-03-01T20:46:55;15.30;35.70
29321;DHT22;16323;51.130;6.612;2023-03-01T20:49:22;15.30;35.70
29321;DHT22;16323;51.130;6.612;2023-03-01T20:51:49;15.30;35.40
29321;DHT22;16323;51.130;6.612;2023-03-01T20:54:16;15.30;35.50
29321;DHT22;16323;51.130;6.612;2023-03-01T20:56:43;15.30;35.40
29321;DHT22;16323;51.130;6.612;2023-03-01T20:59:11;15.30;35.50
29321;DHT22;16323;51.130;6.612;2023-03-01T21:01:39;15.40;35.60
29321;DHT22;16323;51.130;6.612;2023-03-01T21:04:06;15.40;35.50
29321;DHT22;16323;51.130;6.612;2023-03-01T21:06:33;15.40;35.50
29321;DHT22;16323;51.130;6.612;2023-03-01T21:09:00;15.40;36.70
29321;DHT22;16323;51.130;6.612;2023-03-01T21:11:27;15.40;35.40
29321;DHT22;16323;51.130;6.612;2023-03-01T21:13:54;15.30;35.30
29321;DHT22;16323;51.130;6.612;2023-03-01T21:16:22;15.30;35.00
29321;DHT22;16323;51.130;6.612;2023-03-01T21:18:49;15.20;34.50
29321;DHT22;16323;51.130;6.612;2023-03-01T21:21:18;15.30;36.90
29321;DHT22;16323;51.130;6.612;2023-03-01T21:23:45;15.30;35.90
29321;DHT22;16323;51.130;6.612;2023-03-01T21:26:15;15.20;35.90
29321;DHT22;16323;51.130;6.612;2023-03-01T21:28:44;15.20;35.70
29321;DHT22;16323;51.130;6.612;2023-03-01T21:31:13;15.30;35.70
29321;DHT22;16323;51.130;6.612;2023-03-01T21:33:45;15.20;35.60
29321;DHT22;16323;51.130;6.612;2023-03-01T21:36:13;15.30;35.70
29321;DHT22;16323;51.130;6.612;2023-03-01T21:38:41;15.30;35.70
29321;DHT22;16323;51.130;6.612;2023-03-01T21:41:09;15.30;35.90
29321;DHT22;16323;51.130;6.612;2023-03-01T21:43:37;15.30;35.70
29321;DHT22;16323;51.130;6.612;2023-03-01T21:46:07;15.30;35.70
29321;DHT22;16323;51.130;6.612;2023-03-01T21:48:35;15.30;35.70
29321;DHT22;16323;51.130;6.612;2023-03-01T21:51:04;15.30;35.70
29321;DHT22;16323;51.130;6.612;2023-03-01T21:53:32;15.30;35.70
29321;DHT22;16323;51.130;6.612;2023-03-01T21:56:00;15.30;35.70
29321;DHT22;16323;51.130;6.612;2023-03-01T21:58:28;15.30;35.70
29321;DHT22;16323;51.130;6.612;2023-03-01T22:00:57;15.30;35.70
29321;DHT22;16323;51.130;6.612;2023-03-01T22:03:25;15.30;35.70
29321;DHT22;16323;51.130;6.612;2023-03-01T22:05:56;15.20;35.00
29321;DHT22;16323;51.130;6.612;2023-03-01T22:08:25;15.20;34.90
29321;DHT22;16323;51.130;6.612;2023-03-01T22:10:52;15.10;34.60
29321;DHT22;16323;51.130;6.612;2023-03-01T22:13:20;15.10;34.80
29321;DHT22;16323;51.130;6.612;2023-03-01T22:15:47;15.10;34.70
29321;DHT22;16323;51.130;6.612;2023-03-01T22:18:14;15.00;34.70
29321;DHT22;16323;51.130;6.612;2023-03-01T22:20:41;15.00;34.60
29321;DHT22;16323;51.130;6.612;2023-03-01T22:23:08;15.00;34.60
29321;DHT22;16323;51.130;6.612;2023-03-01T22:25:41;15.00;34.60
29321;DHT22;16323;51.130;6.612;2023-03-01T22:28:08;15.10;34.90
29321;DHT22;16323;51.130;6.612;2023-03-01T22:30:34;15.10;35.50
29321;DHT22;16323;51.130;6.612;2023-03-01T22:33:01;15.10;35.90
29321;DHT22;16323;51.130;6.612;2023-03-01T22:35:28;15.20;36.30
29321;DHT22;16323;51.130;6.612;2023-03-01T22:37:55;15.20;36.40
29321;DHT22;16323;51.130;6.612;2023-03-01T22:40:22;15.20;36.40
29321;DHT22;16323;51.130;6.612;2023-03-01T22:42:50;15.20;36.50
29321;DHT22;16323;51.130;6.612;2023-03-01T22:45:18;15.20;36.50
29321;DHT22;16323;51.130;6.612;2023-03-01T22:47:45;15.20;36.60
29321;DHT22;16323;51.130;6.612;2023-03-01T22:50:13;15.20;36.80
29321;DHT22;16323;51.130;6.612;2023-03-01T22:52:40;15.30;36.90
29321;DHT22;16323;51.130;6.612;2023-03-01T22:55:08;15.30;36.90
29321;DHT22;16323;51.130;6.612;2023-03-01T22:57:35;15.30;36.80
29321;DHT22;16323;51.130;6.612;2023-03-01T23:00:05;15.30;37.00
29321;DHT22;16323;51.130;6.612;2023-03-01T23:02:37;15.20;36.80
29321;DHT22;16323;51.130;6.612;2023-03-01T23:05:05;15.20;36.90
29321;DHT22;16323;51.130;6.612;2023-03-01T23:07:32;15.20;36.80
29321;DHT22;16323;51.130;6.612;2023-03-01T23:09:59;15.20;36.90
29321;DHT22;16323;51.130;6.612;2023-03-01T23:12:26;15.20;36.90
29321;DHT22;16323;51.130;6.612;2023-03-01T23:14:53;15.20;36.90
29321;DHT22;16323;51.130;6.612;2023-03-01T23:17:21;15.30;37.00
29321;DHT22;16323;51.130;6.612;2023-03-01T23:19:48;15.30;37.00
29321;DHT22;16323;51.130;6.612;2023-03-01T23:22:16;15.30;36.80
29321;DHT22;16323;51.130;6.612;2023-03-01T23:24:42;15.30;36.70
29321;DHT22;16323;51.130;6.612;2023-03-01T23:27:09;15.30;36.80
29321;DHT22;16323;51.130;6.612;2023-03-01T23:29:38;15.30;36.70
29321;DHT22;16323;51.130;6.612;2023-03-01T23:32:05;15.30;36.80
29321;DHT22;16323;51.130;6.612;2023-03-01T23:34:34;15.30;36.80
29321;DHT22;16323;51.130;6.612;2023-03-01T23:37:02;15.30;36.80
29321;DHT22;16323;51.130;6.612;2023-03-01T23:39:29;15.30;36.80
29321;DHT22;16323;51.130;6.612;2023-03-01T23:41:57;15.30;36.80
29321;DHT22;16323;51.130;6.612;2023-03-01T23:44:24;15.30;36.70
29321;DHT22;16323;51.130;6.612;2023-03-01T23:46:50;15.30;36.60
29321;DHT22;16323;51.130;6.612;2023-03-01T23:49:20;15.30;36.70
29321;DHT22;16323;51.130;6.612;2023-03-01T23:51:49;15.30;36.60
29321;DHT22;16323;51.130;6.612;2023-03-01T23:54:17;15.30;36.60
29321;DHT22;16323;51.130;6.612;2023-03-01T23:56:45;15.30;36.50
29321;DHT22;16323;51.130;6.612;2023-03-01T23:59:14;15.20;36.30
